XBBAM MMCP-MMMX
Flight info
| Callsign | XBBAM |
|---|---|
| Flight time | N/A |
| Altitude | 36000 |
| Route | CPE3B CPE UJ24 VER UT111 LARLO LARLO3B |
| Aircraft | B738/M-SDE2E3FGHIRWXY/LB1 |
Departure
| Time | 2026-04-11 21:18 |
|---|---|
| Airport | Ingeniero Alberto Acuña Ongay International Airport (MMCP) |
Arrival
| Time | N/A |
|---|---|
| Airport | Mexico City Benito Juárez International Airport (MMMX) |
| Time | Latitude | Longitude | Altitude | Speed | Heading |
|---|---|---|---|---|---|
| 2026-04-11 20:57 | 19.81425 | -90.50308 | 30 ft | 0 kts | 257° |
| 2026-04-11 21:09 | 19.81427 | -90.50298 | 30 ft | 0 kts | 257° |
| 2026-04-11 21:09 | 19.81430 | -90.50288 | 30 ft | 2 kts | 242° |
| 2026-04-11 21:09 | 19.81439 | -90.50275 | 30 ft | 2 kts | 217° |
| 2026-04-11 21:10 | 19.81453 | -90.50268 | 30 ft | 2 kts | 192° |
| 2026-04-11 21:10 | 19.81466 | -90.50267 | 30 ft | 1 kts | 170° |
| 2026-04-11 21:10 | 19.81472 | -90.50269 | 30 ft | 0 kts | 164° |
| 2026-04-11 21:10 | 19.81474 | -90.50269 | 30 ft | 0 kts | 165° |
| 2026-04-11 21:13 | 19.81473 | -90.50269 | 30 ft | 1 kts | 165° |
| 2026-04-11 21:13 | 19.81442 | -90.50261 | 30 ft | 6 kts | 165° |
| 2026-04-11 21:13 | 19.81395 | -90.50231 | 30 ft | 9 kts | 116° |
| 2026-04-11 21:14 | 19.81383 | -90.50170 | 30 ft | 7 kts | 104° |
| 2026-04-11 21:14 | 19.81354 | -90.50120 | 29 ft | 8 kts | 131° |
| 2026-04-11 21:14 | 19.81312 | -90.50079 | 29 ft | 7 kts | 139° |
| 2026-04-11 21:14 | 19.81274 | -90.50040 | 29 ft | 8 kts | 133° |
| 2026-04-11 21:15 | 19.81225 | -90.49987 | 28 ft | 11 kts | 134° |
| 2026-04-11 21:15 | 19.81160 | -90.49920 | 28 ft | 14 kts | 137° |
| 2026-04-11 21:15 | 19.81059 | -90.49869 | 27 ft | 18 kts | 166° |
| 2026-04-11 21:15 | 19.80935 | -90.49837 | 28 ft | 17 kts | 165° |
| 2026-04-11 21:16 | 19.80824 | -90.49808 | 29 ft | 15 kts | 165° |
| 2026-04-11 21:16 | 19.80719 | -90.49783 | 29 ft | 15 kts | 173° |
| 2026-04-11 21:16 | 19.80621 | -90.49793 | 30 ft | 12 kts | 177° |
| 2026-04-11 21:16 | 19.80624 | -90.49750 | 29 ft | 11 kts | 345° |
| 2026-04-11 21:17 | 19.80698 | -90.49775 | 29 ft | 10 kts | 345° |
| 2026-04-11 21:17 | 19.80800 | -90.49802 | 29 ft | 22 kts | 347° |
| 2026-04-11 21:17 | 19.81153 | -90.49891 | 28 ft | 86 kts | 346° |
| 2026-04-11 21:17 | 19.81947 | -90.50106 | 30 ft | 146 kts | 346° |
| 2026-04-11 21:18 | 19.83045 | -90.50398 | 375 ft | 166 kts | 347° |
| 2026-04-11 21:18 | 19.84161 | -90.50683 | 1075 ft | 168 kts | 349° |
| 2026-04-11 21:18 | 19.85351 | -90.50986 | 1528 ft | 187 kts | 347° |
| 2026-04-11 21:18 | 19.86667 | -90.51366 | 1973 ft | 203 kts | 347° |
| 2026-04-11 21:19 | 19.88068 | -90.51765 | 2447 ft | 219 kts | 348° |
| 2026-04-11 21:19 | 19.89599 | -90.52181 | 2932 ft | 236 kts | 349° |
| 2026-04-11 21:19 | 19.91259 | -90.52625 | 3475 ft | 251 kts | 349° |
| 2026-04-11 21:19 | 19.92983 | -90.53088 | 4023 ft | 265 kts | 349° |
| 2026-04-11 21:20 | 19.94812 | -90.53582 | 4728 ft | 272 kts | 350° |
| 2026-04-11 21:20 | 19.96672 | -90.53854 | 5454 ft | 273 kts | 6° |
| 2026-04-11 21:20 | 19.98517 | -90.53462 | 6214 ft | 272 kts | 24° |
| 2026-04-11 21:20 | 20.00174 | -90.52543 | 7019 ft | 270 kts | 36° |
| 2026-04-11 21:21 | 20.01646 | -90.51316 | 7837 ft | 270 kts | 46° |
| 2026-04-11 21:21 | 20.02799 | -90.49743 | 8601 ft | 271 kts | 62° |
| 2026-04-11 21:21 | 20.03459 | -90.47873 | 9360 ft | 274 kts | 76° |
| 2026-04-11 21:21 | 20.03733 | -90.45873 | 10020 ft | 281 kts | 86° |
| 2026-04-11 21:22 | 20.03558 | -90.43767 | 10546 ft | 294 kts | 103° |
| 2026-04-11 21:22 | 20.02721 | -90.41746 | 11115 ft | 306 kts | 121° |
| 2026-04-11 21:22 | 20.01389 | -90.39986 | 11741 ft | 314 kts | 133° |
| 2026-04-11 21:22 | 19.99641 | -90.38551 | 12376 ft | 323 kts | 150° |
| 2026-04-11 21:23 | 19.97495 | -90.37819 | 13083 ft | 329 kts | 171° |
| 2026-04-11 21:23 | 19.95185 | -90.37846 | 13811 ft | 332 kts | 188° |
| 2026-04-11 21:23 | 19.92972 | -90.38469 | 14495 ft | 335 kts | 204° |
| 2026-04-11 21:23 | 19.91022 | -90.39828 | 15210 ft | 336 kts | 226° |
| 2026-04-11 21:24 | 19.89493 | -90.41704 | 15954 ft | 336 kts | 233° |
| 2026-04-11 21:24 | 19.88054 | -90.43658 | 16639 ft | 339 kts | 233° |
| 2026-04-11 21:24 | 19.86619 | -90.45620 | 17390 ft | 339 kts | 233° |
| 2026-04-11 21:24 | 19.85158 | -90.47606 | 18021 ft | 343 kts | 234° |
| 2026-04-11 21:25 | 19.83859 | -90.49734 | 18617 ft | 345 kts | 244° |
| 2026-04-11 21:25 | 19.83002 | -90.52107 | 19238 ft | 347 kts | 257° |
| 2026-04-11 21:25 | 19.82556 | -90.54630 | 19827 ft | 350 kts | 263° |
| 2026-04-11 21:25 | 19.82256 | -90.57201 | 20384 ft | 354 kts | 264° |
| 2026-04-11 21:26 | 19.82000 | -90.59790 | 20946 ft | 358 kts | 265° |
| 2026-04-11 21:26 | 19.81749 | -90.62447 | 21526 ft | 361 kts | 265° |
| 2026-04-11 21:26 | 19.81496 | -90.65076 | 22065 ft | 364 kts | 265° |
| 2026-04-11 21:26 | 19.81230 | -90.67770 | 22573 ft | 368 kts | 265° |
| 2026-04-11 21:27 | 19.80957 | -90.70464 | 23184 ft | 368 kts | 265° |
| 2026-04-11 21:27 | 19.80679 | -90.73144 | 23710 ft | 370 kts | 265° |
| 2026-04-11 21:27 | 19.80394 | -90.75871 | 24240 ft | 371 kts | 265° |
| 2026-04-11 21:27 | 19.80107 | -90.78592 | 24809 ft | 371 kts | 265° |
| 2026-04-11 21:28 | 19.79822 | -90.81288 | 25281 ft | 373 kts | 265° |
| 2026-04-11 21:28 | 19.79531 | -90.84019 | 25755 ft | 375 kts | 265° |
| 2026-04-11 21:28 | 19.79237 | -90.86774 | 26202 ft | 377 kts | 265° |
| 2026-04-11 21:28 | 19.78940 | -90.89563 | 26676 ft | 378 kts | 265° |
| 2026-04-11 21:29 | 19.78647 | -90.92300 | 27118 ft | 379 kts | 265° |
| 2026-04-11 21:29 | 19.78346 | -90.95107 | 27601 ft | 379 kts | 265° |
| 2026-04-11 21:29 | 19.78050 | -90.97870 | 27973 ft | 382 kts | 265° |
| 2026-04-11 21:29 | 19.77748 | -91.00680 | 28376 ft | 384 kts | 265° |
| 2026-04-11 21:30 | 19.77444 | -91.03499 | 28781 ft | 385 kts | 265° |
| 2026-04-11 21:30 | 19.77137 | -91.06332 | 29238 ft | 386 kts | 265° |
| 2026-04-11 21:30 | 19.76832 | -91.09154 | 29578 ft | 388 kts | 265° |
| 2026-04-11 21:30 | 19.76524 | -91.11989 | 30055 ft | 387 kts | 265° |
| 2026-04-11 21:31 | 19.76214 | -91.14845 | 30412 ft | 390 kts | 264° |
| 2026-04-11 21:31 | 19.75906 | -91.17672 | 30822 ft | 390 kts | 264° |
| 2026-04-11 21:31 | 19.75593 | -91.20549 | 31196 ft | 391 kts | 264° |
| 2026-04-11 21:32 | 19.74965 | -91.26298 | 31891 ft | 393 kts | 264° |
| 2026-04-11 21:32 | 19.74654 | -91.29144 | 32289 ft | 393 kts | 264° |
| 2026-04-11 21:32 | 19.74335 | -91.32053 | 32631 ft | 394 kts | 264° |
| 2026-04-11 21:32 | 19.74015 | -91.34959 | 32968 ft | 395 kts | 264° |
| 2026-04-11 21:33 | 19.73696 | -91.37859 | 33307 ft | 396 kts | 264° |
| 2026-04-11 21:33 | 19.73374 | -91.40787 | 33635 ft | 398 kts | 264° |
| 2026-04-11 21:33 | 19.73053 | -91.43700 | 33916 ft | 400 kts | 264° |
| 2026-04-11 21:33 | 19.72730 | -91.46626 | 34244 ft | 401 kts | 264° |
| 2026-04-11 21:34 | 19.72403 | -91.49580 | 34598 ft | 401 kts | 264° |
| 2026-04-11 21:34 | 19.72080 | -91.52502 | 34877 ft | 403 kts | 264° |
| 2026-04-11 21:34 | 19.71750 | -91.55477 | 35262 ft | 402 kts | 263° |
| 2026-04-11 21:34 | 19.71421 | -91.58438 | 35470 ft | 405 kts | 264° |
| 2026-04-11 21:35 | 19.71096 | -91.61352 | 35918 ft | 402 kts | 263° |
| 2026-04-11 21:35 | 19.70767 | -91.64304 | 35999 ft | 405 kts | 263° |
| 2026-04-11 21:35 | 19.70128 | -91.70024 | 35999 ft | 401 kts | 263° |
| 2026-04-11 21:36 | 19.69471 | -91.75904 | 35999 ft | 400 kts | 263° |
| 2026-04-11 21:36 | 19.68816 | -91.81742 | 35996 ft | 401 kts | 263° |
| 2026-04-11 21:37 | 19.68156 | -91.87592 | 36003 ft | 401 kts | 263° |
| 2026-04-11 21:37 | 19.67493 | -91.93469 | 36000 ft | 402 kts | 263° |
| 2026-04-11 21:38 | 19.66830 | -91.99348 | 35998 ft | 402 kts | 263° |
| 2026-04-11 21:38 | 19.66165 | -92.05215 | 35995 ft | 401 kts | 263° |
| 2026-04-11 21:39 | 19.65499 | -92.11071 | 35999 ft | 402 kts | 263° |
| 2026-04-11 21:39 | 19.64831 | -92.16933 | 36000 ft | 402 kts | 263° |
| 2026-04-11 21:40 | 19.64163 | -92.22783 | 35995 ft | 402 kts | 263° |
| 2026-04-11 21:40 | 19.63487 | -92.28674 | 35999 ft | 401 kts | 263° |
| 2026-04-11 21:41 | 19.62815 | -92.34530 | 35996 ft | 402 kts | 263° |
| 2026-04-11 21:41 | 19.62138 | -92.40408 | 35989 ft | 402 kts | 263° |
| 2026-04-11 21:42 | 19.61461 | -92.46267 | 35999 ft | 402 kts | 263° |
| 2026-04-11 21:42 | 19.60778 | -92.52148 | 36000 ft | 402 kts | 263° |
| 2026-04-11 21:43 | 19.60113 | -92.57866 | 35999 ft | 402 kts | 263° |
| 2026-04-11 21:43 | 19.59427 | -92.63752 | 35998 ft | 403 kts | 263° |
| 2026-04-11 21:44 | 19.58743 | -92.69601 | 36001 ft | 403 kts | 263° |
| 2026-04-11 21:44 | 19.58050 | -92.75503 | 36011 ft | 402 kts | 263° |
| 2026-04-11 21:45 | 19.57361 | -92.81358 | 36011 ft | 403 kts | 262° |
| 2026-04-11 21:45 | 19.56666 | -92.87247 | 36013 ft | 403 kts | 262° |
| 2026-04-11 21:46 | 19.55968 | -92.93143 | 36008 ft | 402 kts | 262° |
| 2026-04-11 21:46 | 19.55289 | -92.98877 | 36005 ft | 403 kts | 262° |
| 2026-04-11 21:47 | 19.54234 | -93.07735 | 36009 ft | 404 kts | 262° |
| 2026-04-11 21:48 | 19.53533 | -93.13604 | 36012 ft | 404 kts | 262° |
| 2026-04-11 21:48 | 19.52825 | -93.19514 | 36009 ft | 404 kts | 262° |
| 2026-04-11 21:49 | 19.52119 | -93.25391 | 36010 ft | 404 kts | 262° |
| 2026-04-11 21:49 | 19.51404 | -93.31303 | 36006 ft | 404 kts | 262° |
| 2026-04-11 21:50 | 19.50691 | -93.37199 | 36006 ft | 404 kts | 262° |
| 2026-04-11 21:50 | 19.49975 | -93.43098 | 36012 ft | 405 kts | 262° |
| 2026-04-11 21:51 | 19.49258 | -93.48982 | 36013 ft | 405 kts | 262° |
| 2026-04-11 21:51 | 19.48538 | -93.54885 | 36006 ft | 405 kts | 262° |
| 2026-04-11 21:52 | 19.47814 | -93.60802 | 36008 ft | 406 kts | 262° |
| 2026-04-11 21:52 | 19.47090 | -93.66707 | 36004 ft | 405 kts | 262° |
| 2026-04-11 21:53 | 19.46365 | -93.72608 | 35997 ft | 406 kts | 262° |
| 2026-04-11 21:53 | 19.45633 | -93.78548 | 35997 ft | 405 kts | 262° |
| 2026-04-11 21:54 | 19.44907 | -93.84425 | 35998 ft | 406 kts | 262° |
| 2026-04-11 21:54 | 19.44170 | -93.90364 | 35998 ft | 406 kts | 262° |
| 2026-04-11 21:55 | 19.43437 | -93.96260 | 35997 ft | 407 kts | 262° |
| 2026-04-11 21:55 | 19.42696 | -94.02206 | 35996 ft | 407 kts | 262° |
| 2026-04-11 21:56 | 19.41957 | -94.08121 | 35999 ft | 406 kts | 262° |
| 2026-04-11 21:56 | 19.41216 | -94.14036 | 35999 ft | 407 kts | 262° |
| 2026-04-11 21:57 | 19.40470 | -94.19971 | 35998 ft | 408 kts | 262° |
| 2026-04-11 21:57 | 19.39722 | -94.25906 | 35997 ft | 406 kts | 262° |
| 2026-04-11 21:58 | 19.38970 | -94.31857 | 36002 ft | 407 kts | 262° |
| 2026-04-11 21:58 | 19.38217 | -94.37808 | 36000 ft | 408 kts | 262° |
| 2026-04-11 21:59 | 19.37466 | -94.43720 | 36003 ft | 407 kts | 262° |
| 2026-04-11 21:59 | 19.36710 | -94.49657 | 36000 ft | 407 kts | 262° |
| 2026-04-11 22:00 | 19.35952 | -94.55593 | 36002 ft | 407 kts | 262° |
| 2026-04-11 22:00 | 19.35194 | -94.61519 | 36001 ft | 408 kts | 262° |
| 2026-04-11 22:01 | 19.34435 | -94.67434 | 36003 ft | 408 kts | 261° |
| 2026-04-11 22:01 | 19.33667 | -94.73404 | 36004 ft | 408 kts | 261° |
| 2026-04-11 22:02 | 19.32900 | -94.79349 | 36006 ft | 409 kts | 261° |
| 2026-04-11 22:02 | 19.32133 | -94.85281 | 36008 ft | 409 kts | 261° |
| 2026-04-11 22:03 | 19.31360 | -94.91245 | 36006 ft | 409 kts | 261° |
| 2026-04-11 22:03 | 19.30585 | -94.97204 | 36008 ft | 409 kts | 261° |
| 2026-04-11 22:04 | 19.29810 | -95.03149 | 36005 ft | 409 kts | 261° |
| 2026-04-11 22:04 | 19.29038 | -95.09056 | 36005 ft | 408 kts | 261° |
| 2026-04-11 22:05 | 19.28255 | -95.15022 | 36007 ft | 408 kts | 261° |
| 2026-04-11 22:05 | 19.27475 | -95.20959 | 36005 ft | 409 kts | 261° |
| 2026-04-11 22:06 | 19.26692 | -95.26896 | 36004 ft | 409 kts | 261° |
| 2026-04-11 22:06 | 19.25904 | -95.32852 | 36002 ft | 410 kts | 261° |
| 2026-04-11 22:07 | 19.25111 | -95.38836 | 36004 ft | 410 kts | 261° |
| 2026-04-11 22:07 | 19.24324 | -95.44759 | 36001 ft | 409 kts | 261° |
| 2026-04-11 22:08 | 19.23527 | -95.50745 | 36000 ft | 411 kts | 261° |
| 2026-04-11 22:08 | 19.22732 | -95.56699 | 35995 ft | 409 kts | 261° |
| 2026-04-11 22:09 | 19.21937 | -95.62643 | 35999 ft | 410 kts | 261° |
| 2026-04-11 22:09 | 19.21132 | -95.68638 | 36002 ft | 410 kts | 261° |
| 2026-04-11 22:10 | 19.20333 | -95.74575 | 36007 ft | 410 kts | 261° |
| 2026-04-11 22:10 | 19.19529 | -95.80548 | 36007 ft | 411 kts | 261° |
| 2026-04-11 22:11 | 19.18723 | -95.86524 | 36009 ft | 411 kts | 261° |
| 2026-04-11 22:11 | 19.17916 | -95.92493 | 36014 ft | 411 kts | 261° |
| 2026-04-11 22:12 | 19.17103 | -95.98485 | 36020 ft | 411 kts | 261° |
| 2026-04-11 22:12 | 19.16294 | -96.04438 | 36023 ft | 411 kts | 261° |
| 2026-04-11 22:13 | 19.15480 | -96.10403 | 36022 ft | 411 kts | 261° |
| 2026-04-11 22:13 | 19.14636 | -96.16359 | 36035 ft | 410 kts | 259° |
| 2026-04-11 22:14 | 19.13223 | -96.22167 | 36039 ft | 409 kts | 251° |
| 2026-04-11 22:14 | 19.11249 | -96.27812 | 36039 ft | 410 kts | 249° |
| 2026-04-11 22:15 | 19.09177 | -96.33421 | 36047 ft | 409 kts | 249° |
| 2026-04-11 22:15 | 19.07124 | -96.39020 | 36048 ft | 409 kts | 249° |
| 2026-04-11 22:16 | 19.05087 | -96.44634 | 36056 ft | 408 kts | 249° |
| 2026-04-11 22:16 | 19.03068 | -96.50227 | 36068 ft | 409 kts | 249° |
| 2026-04-11 22:17 | 19.01051 | -96.55825 | 36093 ft | 408 kts | 249° |
| 2026-04-11 22:17 | 18.99035 | -96.61414 | 36116 ft | 409 kts | 249° |
| 2026-04-11 22:18 | 18.97003 | -96.67046 | 36142 ft | 410 kts | 249° |
| 2026-04-11 22:18 | 18.94975 | -96.72656 | 36161 ft | 409 kts | 249° |
| 2026-04-11 22:19 | 18.93003 | -96.78108 | 36177 ft | 408 kts | 249° |
| 2026-04-11 22:19 | 18.90980 | -96.83698 | 36203 ft | 408 kts | 249° |
| 2026-04-11 22:20 | 18.88951 | -96.89298 | 36226 ft | 408 kts | 249° |
| 2026-04-11 22:20 | 18.86930 | -96.94866 | 36266 ft | 407 kts | 249° |
| 2026-04-11 22:21 | 18.84887 | -97.00490 | 36292 ft | 408 kts | 249° |
| 2026-04-11 22:21 | 18.82871 | -97.06034 | 36320 ft | 407 kts | 249° |
| 2026-04-11 22:22 | 18.80838 | -97.11620 | 36334 ft | 407 kts | 249° |
| 2026-04-11 22:22 | 18.78807 | -97.17193 | 36334 ft | 407 kts | 248° |
| 2026-04-11 22:23 | 18.76780 | -97.22750 | 36332 ft | 407 kts | 249° |
| 2026-04-11 22:23 | 18.74745 | -97.28323 | 36324 ft | 407 kts | 249° |